createdAt,value
2019-03-18T00:01:53.517Z,99695.11
2019-03-18T00:04:25.857Z,99696.85
2019-03-18T00:06:58.178Z,99704.98
2019-03-18T00:09:31.041Z,99709.80
2019-03-18T00:12:03.025Z,99707.20
2019-03-18T00:14:35.583Z,99715.46
2019-03-18T00:17:09.797Z,99713.27
2019-03-18T00:19:43.070Z,99708.06
2019-03-18T00:22:15.969Z,99706.29
2019-03-18T00:24:48.107Z,99704.55
2019-03-18T00:27:20.515Z,99721.42
2019-03-18T00:29:52.786Z,99719.16
2019-03-18T00:32:25.252Z,99714.43
2019-03-18T00:34:57.628Z,99718.73
2019-03-18T00:37:30.096Z,99727.45
2019-03-18T00:40:02.009Z,99721.75
2019-03-18T00:42:34.437Z,99725.19
2019-03-18T00:45:14.596Z,99729.07
2019-03-18T00:47:42.861Z,99739.48
2019-03-18T00:50:19.239Z,99740.39
2019-03-18T00:52:51.717Z,99739.64
2019-03-18T00:55:23.630Z,99740.47
2019-03-18T00:57:56.039Z,99742.16
2019-03-18T01:00:28.513Z,99745.19
2019-03-18T01:03:00.882Z,99751.64
2019-03-18T01:05:33.164Z,99746.83
2019-03-18T01:08:05.635Z,99743.81
2019-03-18T01:10:37.902Z,99757.25
2019-03-18T01:13:10.376Z,99763.24
2019-03-18T01:15:42.286Z,99756.75
2019-03-18T01:18:16.245Z,99748.13
2019-03-18T01:20:49.640Z,99749.83
2019-03-18T01:23:22.010Z,99760.72
2019-03-18T01:25:55.305Z,99755.87
2019-03-18T01:28:27.265Z,99746.31
2019-03-18T01:30:59.179Z,99746.24
2019-03-18T01:33:31.226Z,99746.66
2019-03-18T01:36:03.562Z,99750.97
2019-03-18T01:38:35.939Z,99748.84
2019-03-18T01:41:08.208Z,99752.33
2019-03-18T01:43:40.580Z,99748.19
2019-03-18T01:46:12.850Z,99749.56
2019-03-18T01:48:45.222Z,99755.14
2019-03-18T01:51:17.127Z,99748.55
2019-03-18T01:53:49.089Z,99756.39
2019-03-18T01:56:21.407Z,99751.98
2019-03-18T01:58:53.465Z,99744.10
2019-03-18T02:01:25.376Z,99754.02
2019-03-18T02:03:58.014Z,99757.51
2019-03-18T02:06:29.923Z,99754.17
2019-03-18T02:09:02.246Z,99762.42
2019-03-18T02:11:34.521Z,99755.09
2019-03-18T02:14:06.989Z,99756.39
2019-03-18T02:16:39.264Z,99764.17
2019-03-18T02:19:11.944Z,99769.80
2019-03-18T02:21:44.209Z,99777.11
2019-03-18T02:24:16.679Z,99777.53
2019-03-18T02:26:49.059Z,99786.22
2019-03-18T02:29:21.432Z,99773.62
2019-03-18T02:31:53.702Z,99772.80
2019-03-18T02:34:26.177Z,99779.66
2019-03-18T02:36:58.079Z,99789.24
2019-03-18T02:39:30.401Z,99784.86
2019-03-18T02:42:02.679Z,99786.95
2019-03-18T02:44:35.042Z,99781.33
2019-03-18T02:47:07.318Z,99780.36
2019-03-18T02:49:39.685Z,99772.94
2019-03-18T02:52:12.056Z,99783.71
2019-03-18T02:54:44.433Z,99795.34
2019-03-18T02:57:16.758Z,99788.78
2019-03-18T02:59:49.174Z,99793.05
2019-03-18T03:02:21.077Z,99795.95
2019-03-18T03:04:53.051Z,99794.16
2019-03-18T03:07:25.368Z,99793.73
2019-03-18T03:09:57.740Z,99797.53
2019-03-18T03:12:30.016Z,99811.75
2019-03-18T03:15:02.392Z,99803.89
2019-03-18T03:17:35.673Z,99795.56
2019-03-18T03:20:10.909Z,99805.49
2019-03-18T03:22:43.290Z,99814.12
2019-03-18T03:25:15.758Z,99807.92
2019-03-18T03:27:47.659Z,99828.73
2019-03-18T03:30:19.998Z,99825.69
2019-03-18T03:32:52.309Z,99831.63
2019-03-18T03:35:24.422Z,99848.95
2019-03-18T03:37:56.336Z,99844.16
2019-03-18T03:40:28.760Z,99843.66
2019-03-18T03:43:01.036Z,99842.80
2019-03-18T03:45:33.403Z,99854.12
2019-03-18T03:48:05.534Z,99854.41
2019-03-18T03:50:38.047Z,99850.52
2019-03-18T03:53:10.175Z,99849.15
2019-03-18T03:55:42.582Z,99852.16
2019-03-18T03:58:14.858Z,99853.02
2019-03-18T04:00:47.228Z,99850.77
2019-03-18T04:03:19.604Z,99871.13
2019-03-18T04:05:53.120Z,99863.72
2019-03-18T04:08:25.370Z,99864.54
2019-03-18T04:10:57.341Z,99875.33
2019-03-18T04:13:29.600Z,99877.57
2019-03-18T04:16:01.665Z,99889.63
2019-03-18T04:18:33.935Z,99876.15
2019-03-18T04:21:06.718Z,99883.03
2019-03-18T04:23:38.985Z,99881.58
2019-03-18T04:26:11.369Z,99884.14
2019-03-18T04:28:43.681Z,99885.34
2019-03-18T04:31:15.652Z,99876.16
2019-03-18T04:33:47.991Z,99890.06
2019-03-18T04:36:20.428Z,99889.91
2019-03-18T04:38:52.707Z,99899.93
2019-03-18T04:41:25.980Z,99901.55
2019-03-18T04:43:58.262Z,99908.11
2019-03-18T04:46:37.088Z,99905.45
2019-03-18T04:49:11.022Z,99918.31
2019-03-18T04:51:49.377Z,99906.92
2019-03-18T04:54:23.117Z,99910.28
2019-03-18T04:56:55.664Z,99916.33
2019-03-18T04:59:28.129Z,99907.68
2019-03-18T05:02:00.536Z,99905.94
2019-03-18T05:04:32.809Z,99908.88
2019-03-18T05:07:05.812Z,99901.63
2019-03-18T05:09:38.165Z,99904.20
2019-03-18T05:12:10.948Z,99902.52
2019-03-18T05:14:42.850Z,99899.92
2019-03-18T05:17:26.198Z,99899.12
2019-03-18T05:19:48.806Z,99906.83
2019-03-18T05:22:21.564Z,99914.21
2019-03-18T05:24:53.825Z,99909.94
2019-03-18T05:27:26.204Z,99915.70
2019-03-18T05:29:58.473Z,99910.13
2019-03-18T05:32:30.900Z,99911.94
2019-03-18T05:35:02.807Z,99912.92
2019-03-18T05:37:35.172Z,99915.91
2019-03-18T05:40:09.297Z,99929.86
2019-03-18T05:42:41.655Z,99938.36
2019-03-18T05:45:13.567Z,99936.43
2019-03-18T05:47:45.900Z,99935.83
2019-03-18T05:50:18.271Z,99946.98
2019-03-18T05:52:50.633Z,99947.66
2019-03-18T05:55:22.912Z,99954.34
2019-03-18T05:57:55.374Z,99961.89
2019-03-18T06:00:27.413Z,99958.11
2019-03-18T06:02:59.935Z,99961.19
2019-03-18T06:05:32.303Z,99963.68
2019-03-18T06:08:04.668Z,99955.96
2019-03-18T06:10:37.035Z,99971.55
2019-03-18T06:13:09.586Z,99975.48
2019-03-18T06:15:41.884Z,99977.27
2019-03-18T06:18:13.940Z,99985.31
2019-03-18T06:20:46.212Z,99985.58
2019-03-18T06:23:19.206Z,99984.88
2019-03-18T06:25:51.118Z,99977.20
2019-03-18T06:28:23.432Z,99975.96
2019-03-18T06:30:55.808Z,99984.22
2019-03-18T06:33:28.180Z,99984.45
2019-03-18T06:36:00.446Z,99975.78
2019-03-18T06:38:32.915Z,99968.35
2019-03-18T06:41:06.423Z,99970.35
2019-03-18T06:43:38.838Z,99975.14
2019-03-18T06:46:11.162Z,99972.13
2019-03-18T06:48:43.132Z,99971.95
2019-03-18T06:51:15.391Z,99985.41
2019-03-18T06:53:47.872Z,99981.44
2019-03-18T06:56:20.138Z,99982.50
2019-03-18T06:58:52.624Z,99967.25
2019-03-18T07:01:24.886Z,99973.38
2019-03-18T07:03:57.099Z,99992.67
2019-03-18T07:06:29.419Z,99991.72
2019-03-18T07:09:03.328Z,99992.84
2019-03-18T07:11:35.603Z,99999.13
2019-03-18T07:14:07.977Z,100011.00
2019-03-18T07:16:40.247Z,100000.36
2019-03-18T07:19:12.618Z,100008.80
2019-03-18T07:21:45.098Z,100010.63
2019-03-18T07:24:18.100Z,100016.47
2019-03-18T07:26:50.448Z,99996.66
2019-03-18T07:29:22.926Z,100001.45
2019-03-18T07:31:56.604Z,100006.87
2019-03-18T07:34:29.107Z,99984.11
2019-03-18T07:37:01.472Z,100007.60
2019-03-18T07:39:33.538Z,100010.03
2019-03-18T07:42:06.751Z,100016.58
2019-03-18T07:44:39.106Z,100026.80
2019-03-18T07:47:11.366Z,100029.75
2019-03-18T07:49:43.737Z,100040.70
2019-03-18T07:52:16.013Z,100044.30
2019-03-18T07:54:48.387Z,100054.94
2019-03-18T07:57:20.653Z,100057.09
2019-03-18T07:59:53.021Z,100062.70
2019-03-18T08:02:25.149Z,100057.02
2019-03-18T08:04:57.662Z,100043.82
2019-03-18T08:07:29.577Z,100033.03
2019-03-18T08:10:02.522Z,100032.52
2019-03-18T08:12:35.802Z,100042.89
2019-03-18T08:15:13.213Z,100047.37
2019-03-18T08:17:45.568Z,100045.50
2019-03-18T08:20:17.941Z,100048.94
2019-03-18T08:22:50.210Z,100052.96
2019-03-18T08:25:23.097Z,100067.34
2019-03-18T08:27:55.357Z,100047.72
2019-03-18T08:30:27.736Z,100067.44
2019-03-18T08:32:59.647Z,100077.37
2019-03-18T08:35:32.269Z,100084.23
2019-03-18T08:38:04.545Z,100090.55
2019-03-18T08:40:36.988Z,100073.52
2019-03-18T08:43:09.287Z,100081.92
2019-03-18T08:45:41.758Z,100079.43
2019-03-18T08:48:14.032Z,100087.79
2019-03-18T08:50:46.406Z,100073.94
2019-03-18T08:53:18.777Z,100064.41
2019-03-18T08:55:51.143Z,100067.27
2019-03-18T08:58:24.721Z,100058.67
2019-03-18T09:00:57.221Z,100058.14
2019-03-18T09:03:29.589Z,100063.34
2019-03-18T09:06:02.084Z,100073.81
2019-03-18T09:08:34.333Z,100101.36
2019-03-18T09:11:06.871Z,100089.88
2019-03-18T09:13:38.780Z,100101.93
2019-03-18T09:16:12.581Z,100105.83
2019-03-18T09:18:44.848Z,100124.84
2019-03-18T09:21:17.321Z,100115.80
2019-03-18T09:23:49.697Z,100116.70
2019-03-18T09:26:22.791Z,100115.02
2019-03-18T09:28:55.800Z,100118.09
2019-03-18T09:31:28.238Z,100120.90
2019-03-18T09:34:00.254Z,100119.12
2019-03-18T09:36:32.581Z,100109.36
2019-03-18T09:39:06.283Z,100113.70
2019-03-18T09:41:38.658Z,100110.16
2019-03-18T09:44:11.030Z,100121.76
2019-03-18T09:46:43.399Z,100108.42
2019-03-18T09:49:21.492Z,100123.94
2019-03-18T09:51:49.270Z,100104.30
2019-03-18T09:54:21.185Z,100118.19
2019-03-18T09:56:53.150Z,100126.25
2019-03-18T09:59:26.585Z,100107.58
2019-03-18T10:02:00.241Z,100118.71
2019-03-18T10:04:32.459Z,100126.88
2019-03-18T10:07:04.838Z,100123.59
2019-03-18T10:09:37.099Z,100124.97
2019-03-18T10:12:09.478Z,100129.28
2019-03-18T10:14:41.843Z,100126.34
2019-03-18T10:17:13.846Z,100126.62
2019-03-18T10:19:46.176Z,100135.09
2019-03-18T10:22:18.764Z,100138.63
2019-03-18T10:24:50.670Z,100144.92
2019-03-18T10:27:23.084Z,100155.95
2019-03-18T10:29:55.458Z,100136.14
2019-03-18T10:32:27.840Z,100156.73
2019-03-18T10:35:00.323Z,100149.90
2019-03-18T10:37:32.683Z,100150.39
2019-03-18T10:40:06.894Z,100154.16
2019-03-18T10:42:39.273Z,100157.73
2019-03-18T10:45:14.306Z,100173.00
2019-03-18T10:47:46.778Z,100169.87
2019-03-18T10:50:20.275Z,100168.40
2019-03-18T10:52:52.683Z,100174.92
2019-03-18T10:55:24.918Z,100188.98
2019-03-18T10:57:57.255Z,100188.66
2019-03-18T11:00:29.622Z,100178.73
2019-03-18T11:03:01.995Z,100182.20
2019-03-18T11:05:34.385Z,100173.52
2019-03-18T11:08:06.582Z,100172.83
2019-03-18T11:10:38.919Z,100179.36
2019-03-18T11:13:11.292Z,100185.20
2019-03-18T11:15:43.203Z,100184.29
2019-03-18T11:18:15.616Z,100189.89
2019-03-18T11:20:47.995Z,100176.69
2019-03-18T11:23:20.367Z,100169.07
2019-03-18T11:25:55.401Z,100173.25
2019-03-18T11:28:27.767Z,100157.52
2019-03-18T11:30:59.678Z,100167.42
2019-03-18T11:33:32.715Z,100162.24
2019-03-18T11:36:05.096Z,100179.25
2019-03-18T11:38:37.469Z,100184.97
2019-03-18T11:41:09.840Z,100189.02
2019-03-18T11:43:42.417Z,100177.76
2019-03-18T11:46:14.787Z,100163.78
2019-03-18T11:48:47.155Z,100171.64
2019-03-18T11:51:19.532Z,100179.51
2019-03-18T11:53:52.015Z,100176.41
2019-03-18T11:56:24.590Z,100188.73
2019-03-18T11:58:57.058Z,100193.03
2019-03-18T12:01:29.941Z,100191.34
2019-03-18T12:04:02.407Z,100190.38
2019-03-18T12:06:34.892Z,100187.23
2019-03-18T12:09:08.392Z,100168.92
2019-03-18T12:11:40.964Z,100191.14
2019-03-18T12:14:13.440Z,100192.53
2019-03-18T12:16:45.700Z,100196.13
2019-03-18T12:19:18.141Z,100182.75
2019-03-18T12:21:50.454Z,100195.15
2019-03-18T12:24:23.533Z,100170.91
2019-03-18T12:26:55.918Z,100180.08
2019-03-18T12:29:28.290Z,100190.31
2019-03-18T12:32:00.541Z,100189.77
2019-03-18T12:34:32.922Z,100192.15
2019-03-18T12:37:05.196Z,100201.31
2019-03-18T12:39:37.169Z,100212.28
2019-03-18T12:42:10.166Z,100192.75
2019-03-18T12:44:42.509Z,100184.20
2019-03-18T12:47:14.881Z,100191.80
2019-03-18T12:49:47.270Z,100200.73
2019-03-18T12:52:19.638Z,100186.16
2019-03-18T12:54:52.186Z,100204.36
2019-03-18T12:57:24.713Z,100203.51
2019-03-18T12:59:57.402Z,100193.78
2019-03-18T13:02:29.538Z,100200.72
2019-03-18T13:05:01.906Z,100190.98
2019-03-18T13:07:34.275Z,100190.19
2019-03-18T13:10:11.053Z,100193.08
2019-03-18T13:12:43.430Z,100195.67
2019-03-18T13:15:22.249Z,100207.45
2019-03-18T13:17:54.844Z,100203.75
2019-03-18T13:20:28.369Z,100203.25
2019-03-18T13:23:00.685Z,100201.88
2019-03-18T13:25:33.055Z,100212.23
2019-03-18T13:28:05.431Z,100214.72
2019-03-18T13:30:37.812Z,100201.50
2019-03-18T13:33:10.184Z,100210.03
2019-03-18T13:35:43.231Z,100219.38
2019-03-18T13:38:15.788Z,100211.38
2019-03-18T13:40:48.115Z,100229.36
2019-03-18T13:43:20.489Z,100221.44
2019-03-18T13:45:55.606Z,100223.63
2019-03-18T13:48:26.772Z,100219.38
2019-03-18T13:50:59.140Z,100219.78
2019-03-18T13:53:31.402Z,100227.02
2019-03-18T13:56:03.782Z,100226.31
2019-03-18T13:58:36.260Z,100211.73
2019-03-18T14:01:08.615Z,100218.70
2019-03-18T14:03:40.999Z,100231.98
2019-03-18T14:06:13.383Z,100218.20
2019-03-18T14:08:46.863Z,100223.09
2019-03-18T14:11:20.988Z,100226.50
2019-03-18T14:13:53.379Z,100224.34
2019-03-18T14:16:25.735Z,100237.50
2019-03-18T14:18:58.086Z,100236.38
2019-03-18T14:21:33.406Z,100243.36
2019-03-18T14:24:04.472Z,100246.02
2019-03-18T14:26:36.856Z,100246.25
2019-03-18T14:29:09.228Z,100237.55
2019-03-18T14:31:43.768Z,100242.92
2019-03-18T14:34:15.764Z,100236.55
2019-03-18T14:36:48.179Z,100240.47
2019-03-18T14:39:20.604Z,100241.27
2019-03-18T14:41:53.206Z,100244.33
2019-03-18T14:44:25.365Z,100238.95
2019-03-18T14:46:58.286Z,100235.49
2019-03-18T14:49:30.665Z,100232.57
2019-03-18T14:52:05.695Z,100226.08
2019-03-18T14:54:38.670Z,100229.50
2019-03-18T14:57:11.151Z,100222.27
2019-03-18T14:59:43.519Z,100218.57
2019-03-18T15:02:15.992Z,100228.16
2019-03-18T15:04:48.261Z,100234.56
2019-03-18T15:07:20.237Z,100220.64
2019-03-18T15:09:52.603Z,100228.48
2019-03-18T15:12:24.967Z,100208.61
2019-03-18T15:14:57.342Z,100227.42
2019-03-18T15:17:29.724Z,100204.09
2019-03-18T15:20:02.745Z,100227.58
2019-03-18T15:22:35.183Z,100218.09
2019-03-18T15:25:24.113Z,100212.77
2019-03-18T15:27:59.970Z,100215.50
2019-03-18T15:30:36.602Z,100227.36
2019-03-18T15:33:10.171Z,100237.73
2019-03-18T15:38:43.456Z,100236.34
2019-03-18T15:41:23.008Z,100237.80
2019-03-18T15:44:07.588Z,100227.91
2019-03-18T15:46:48.108Z,100232.17
2019-03-18T15:49:21.129Z,100242.91
2019-03-18T15:51:54.658Z,100247.16
2019-03-18T15:54:54.103Z,100254.72
2019-03-18T15:57:29.870Z,100253.73
2019-03-18T15:59:59.383Z,100253.18
2019-03-18T16:02:31.712Z,100259.00
2019-03-18T16:05:03.701Z,100259.04
2019-03-18T16:07:36.010Z,100261.24
2019-03-18T16:10:12.901Z,100272.60
2019-03-18T16:12:46.354Z,100276.25
2019-03-18T16:15:19.775Z,100276.07
2019-03-18T16:17:52.151Z,100269.90
2019-03-18T16:20:27.013Z,100279.38
2019-03-18T16:22:59.333Z,100282.30
2019-03-18T16:25:32.020Z,100281.08
2019-03-18T16:28:04.186Z,100287.39
2019-03-18T16:30:36.164Z,100301.33
2019-03-18T16:33:08.518Z,100303.87
2019-03-18T16:35:40.885Z,100303.03
2019-03-18T16:38:12.798Z,100302.88
2019-03-18T16:40:45.232Z,100312.37
2019-03-18T16:43:17.592Z,100314.45
2019-03-18T16:45:49.966Z,100330.50
2019-03-18T16:48:22.233Z,100334.00
2019-03-18T16:50:54.617Z,100342.25
2019-03-18T16:53:27.448Z,100346.91
2019-03-18T16:55:59.875Z,100346.61
2019-03-18T16:58:32.556Z,100339.35
2019-03-18T17:01:05.166Z,100337.11
2019-03-18T17:03:37.539Z,100345.52
2019-03-18T17:06:10.084Z,100342.37
2019-03-18T17:08:42.187Z,100344.73
2019-03-18T17:11:14.612Z,100351.64
2019-03-18T17:13:46.983Z,100345.36
2019-03-18T17:16:19.407Z,100356.66
2019-03-18T17:18:51.721Z,100352.92
2019-03-18T17:21:24.156Z,100351.79
2019-03-18T17:23:56.468Z,100353.23
2019-03-18T17:26:28.450Z,100361.23
2019-03-18T17:29:00.807Z,100362.31
2019-03-18T17:31:34.228Z,100362.92
2019-03-18T17:34:07.160Z,100379.59
2019-03-18T17:36:39.556Z,100385.79
2019-03-18T17:39:14.417Z,100388.50
2019-03-18T17:41:45.065Z,100386.33
2019-03-18T17:44:17.285Z,100387.86
2019-03-18T17:46:49.872Z,100381.11
2019-03-18T17:49:22.346Z,100399.50
2019-03-18T17:51:54.811Z,100411.23
2019-03-18T17:54:27.081Z,100429.50
2019-03-18T17:57:07.296Z,100436.28
2019-03-18T17:59:34.599Z,100440.22
2019-03-18T18:02:07.093Z,100433.09
2019-03-18T18:04:39.088Z,100427.95
2019-03-18T18:07:11.610Z,100430.33
2019-03-18T18:09:43.980Z,100432.22
2019-03-18T18:12:16.353Z,100442.83
2019-03-18T18:14:48.738Z,100430.23
2019-03-18T18:17:21.190Z,100430.19
2019-03-18T18:19:53.574Z,100436.42
2019-03-18T18:22:26.046Z,100433.48
2019-03-18T18:24:58.418Z,100438.48
2019-03-18T18:27:30.795Z,100436.84
2019-03-18T18:30:03.152Z,100432.83
2019-03-18T18:32:36.650Z,100434.62
2019-03-18T18:35:10.937Z,100436.84
2019-03-18T18:37:43.341Z,100444.55
2019-03-18T18:40:30.257Z,100441.91
2019-03-18T18:43:02.634Z,100448.23
2019-03-18T18:45:35.010Z,100447.27
2019-03-18T18:48:07.388Z,100441.88
2019-03-18T18:50:39.745Z,100448.60
2019-03-18T18:53:11.972Z,100449.91
2019-03-18T18:55:44.383Z,100450.50
2019-03-18T18:58:16.773Z,100452.69
2019-03-18T19:00:49.024Z,100459.24
2019-03-18T19:03:22.438Z,100459.47
2019-03-18T19:05:57.253Z,100465.87
2019-03-18T19:08:31.255Z,100464.78
2019-03-18T19:11:05.196Z,100466.20
2019-03-18T19:13:42.283Z,100461.81
2019-03-18T19:16:17.444Z,100469.11
2019-03-18T19:18:49.983Z,100453.14
2019-03-18T19:21:22.349Z,100465.20
2019-03-18T19:23:54.728Z,100455.56
2019-03-18T19:26:27.087Z,100455.45
2019-03-18T19:29:00.098Z,100463.56
2019-03-18T19:31:32.444Z,100476.84
2019-03-18T19:34:05.231Z,100472.71
2019-03-18T19:36:38.729Z,100484.73
2019-03-18T19:39:11.097Z,100489.91
2019-03-18T19:41:43.872Z,100496.04
2019-03-18T19:44:17.474Z,100502.92
2019-03-18T19:46:50.391Z,100508.46
2019-03-18T19:49:22.745Z,100506.59
2019-03-18T19:51:55.113Z,100511.73
2019-03-18T19:54:27.099Z,100525.59
2019-03-18T19:56:59.443Z,100525.08
2019-03-18T19:59:31.915Z,100528.53
2019-03-18T20:02:04.299Z,100522.51
2019-03-18T20:04:36.278Z,100541.02
2019-03-18T20:07:08.627Z,100537.38
2019-03-18T20:09:40.997Z,100540.58
2019-03-18T20:12:12.918Z,100537.23
2019-03-18T20:14:45.547Z,100548.58
2019-03-18T20:17:17.866Z,100540.89
2019-03-18T20:19:50.181Z,100552.20
2019-03-18T20:22:22.550Z,100557.78
2019-03-18T20:24:54.925Z,100561.39
2019-03-18T20:27:27.286Z,100565.18
2019-03-18T20:30:00.839Z,100566.78
2019-03-18T20:32:33.581Z,100568.48
2019-03-18T20:35:12.920Z,100576.55
2019-03-18T20:37:45.407Z,100583.59
2019-03-18T20:40:18.791Z,100585.30
2019-03-18T20:42:59.830Z,100583.02
2019-03-18T20:45:34.693Z,100576.44
2019-03-18T20:48:07.108Z,100586.41
2019-03-18T20:50:39.638Z,100581.20
2019-03-18T20:53:12.009Z,100589.45
2019-03-18T20:55:44.436Z,100587.59
2019-03-18T20:58:16.747Z,100595.81
2019-03-18T21:00:59.877Z,100587.55
2019-03-18T21:03:32.350Z,100604.41
2019-03-18T21:06:05.027Z,100601.88
2019-03-18T21:08:37.286Z,100609.49
2019-03-18T21:11:12.374Z,100613.72
2019-03-18T21:13:56.474Z,100620.63
2019-03-18T21:16:21.570Z,100615.30
2019-03-18T21:18:53.845Z,100621.28
2019-03-18T21:21:25.846Z,100618.44
2019-03-18T21:23:58.191Z,100628.48
2019-03-18T21:26:32.301Z,100634.53
2019-03-18T21:29:04.673Z,100628.48
2019-03-18T21:31:37.135Z,100632.26
2019-03-18T21:34:09.506Z,100641.61
2019-03-18T21:36:41.980Z,100634.84
2019-03-18T21:39:14.568Z,100636.15
2019-03-18T21:41:47.878Z,100628.04
2019-03-18T21:44:20.327Z,100635.31
2019-03-18T21:46:52.700Z,100639.05
2019-03-18T21:49:24.970Z,100638.50
2019-03-18T21:51:57.653Z,100638.25
2019-03-18T21:54:33.988Z,100649.83
2019-03-18T21:57:04.540Z,100648.48
2019-03-18T21:59:37.019Z,100649.11
2019-03-18T22:02:09.451Z,100654.94
2019-03-18T22:04:41.775Z,100664.31
2019-03-18T22:07:21.808Z,100660.64
2019-03-18T22:10:02.712Z,100657.14
2019-03-18T22:13:08.782Z,100663.59
2019-03-18T22:15:45.027Z,100672.70
2019-03-18T22:18:17.488Z,100667.85
2019-03-18T22:20:49.858Z,100666.09
2019-03-18T22:23:22.226Z,100668.73
2019-03-18T22:25:54.375Z,100670.39
2019-03-18T22:28:26.446Z,100667.13
2019-03-18T22:30:58.729Z,100680.16
2019-03-18T22:33:36.144Z,100680.33
2019-03-18T22:36:09.016Z,100679.13
2019-03-18T22:38:41.691Z,100686.75
2019-03-18T22:41:14.045Z,100683.98
2019-03-18T22:43:49.894Z,100683.45
2019-03-18T22:46:22.288Z,100683.23
2019-03-18T22:48:54.661Z,100694.66
2019-03-18T22:51:28.156Z,100700.45
2019-03-18T22:54:00.521Z,100698.34
2019-03-18T22:56:32.951Z,100699.78
2019-03-18T22:59:04.937Z,100699.02
2019-03-18T23:01:37.227Z,100702.02
2019-03-18T23:04:09.203Z,100693.38
2019-03-18T23:06:41.560Z,100699.42
2019-03-18T23:09:14.054Z,100689.24
2019-03-18T23:11:46.417Z,100686.78
2019-03-18T23:14:18.881Z,100697.80
2019-03-18T23:16:51.159Z,100696.58
2019-03-18T23:19:23.624Z,100704.59
2019-03-18T23:21:56.000Z,100714.31
2019-03-18T23:24:28.368Z,100723.45
2019-03-18T23:27:00.302Z,100727.70
2019-03-18T23:29:32.698Z,100741.20
2019-03-18T23:32:04.628Z,100747.20
2019-03-18T23:34:37.137Z,100741.45
2019-03-18T23:37:09.517Z,100743.02
2019-03-18T23:39:41.508Z,100747.07
2019-03-18T23:42:13.855Z,100748.00
2019-03-18T23:44:46.223Z,100763.03
2019-03-18T23:47:18.602Z,100762.03
2019-03-18T23:49:51.074Z,100758.45
2019-03-18T23:52:22.985Z,100754.64
2019-03-18T23:54:55.411Z,100759.43
2019-03-18T23:57:27.775Z,100752.30
